Terminal Aerodrome Forecast
Issued by NWS

Home | Current Version | Previous Version | Text Only | Print | Product List | Glossary On
Versions: 1 2 3 4 5 6 7 8 9 10 11 12 13 14 15 16 17 18 19 20 21 22 23 24 25 26 27
718
FTUS46 KSGX 310527 CCA
TAFSAN
TAF COR
KSAN 310527Z 3106/0112 VRB04KT P6SM BKN008
     FM311600 VRB04KT P6SM SCT012
     FM312000 29010KT P6SM SCT014
     FM010200 26004KT P6SM SCT014
     FM010600 VRB03KT P6SM BKN010=

USA.gov is the U.S. government's official web portal to all federal, state and local government web resources and services.